SCCF

Details ICAO SCCF (CJC)
Name EL LOA
Region Chile
Timezone America/Santiago (UTC-3.0)
Plans Departing 11
Arriving 30
Stats Elevation 7,543 ft / 2,299 m (AMSL)
Location -22.498175° -68.903575°
Runways 1
Magnetic Variation 5.265° W
Sunrise 2017-12-17 09:47:58 UTC / 2017-12-17 06:47:58 Local
Sunset 2017-12-17 23:18:26 UTC / 2017-12-17 20:18:26 Local
Advertisement - Login to hide

Runways

ID Width Length Bearing (true) Bearing (mag) Surface Threshold Offset Overrun Length
10 98 ft / 30 m 9,455 ft / 2,882 m 93.61° 98.88° Asphalt 0 ft / 0 m 100 ft / 30 m
28 98 ft / 30 m 9,455 ft / 2,882 m 273.60° 278.87° Asphalt 0 ft / 0 m 100 ft / 30 m

Map

Weather


0- 5 10 15 20 25 30 35+ Temperature / ° C

Clouds and Precipitation
Forecast for 2017-12-18 00:00 UTC. Updated 31 minutes ago

Ground ~20,000 ft ~40,000 ft Winds

METAR

SCCF 172100Z 28022KT CAVOK 25/M02 Q1021

TAF

TAF SCCF 171620Z 1718/1818 28024KT CAVOK TX25/1719Z TN08/1807Z BECMG 1720/1722 SCT060 BECMG 1801/1803 24014KT BECMG 1804/1806 11014KT CAVOK BECMG 1816/1818 28022KT

Frequencies

Tower 118.70 MHz CALAMA TWR
Approach 120.90 MHz CALAMA APP
Warning: Do not use this data for real-world aviation or navigation. No guarantee of current accuracy is given.